createdAt,value
2019-02-21T00:01:23.660Z,13.03
2019-02-21T00:03:49.651Z,15.23
2019-02-21T00:06:15.622Z,13.07
2019-02-21T00:08:41.655Z,14.67
2019-02-21T00:11:07.631Z,14.73
2019-02-21T00:13:33.632Z,13.43
2019-02-21T00:16:00.355Z,10.83
2019-02-21T00:18:27.103Z,10.17
2019-02-21T00:20:53.818Z,11.70
2019-02-21T00:23:19.786Z,14.50
2019-02-21T00:25:45.764Z,13.57
2019-02-21T00:28:11.886Z,14.37
2019-02-21T00:30:38.241Z,15.20
2019-02-21T00:33:04.219Z,14.43
2019-02-21T00:35:30.189Z,12.57
2019-02-21T00:37:56.161Z,12.03
2019-02-21T00:40:22.144Z,11.30
2019-02-21T00:42:48.836Z,18.13
2019-02-21T00:45:14.838Z,11.03
2019-02-21T00:47:40.802Z,8.90
2019-02-21T00:50:06.800Z,14.50
2019-02-21T00:52:32.789Z,14.87
2019-02-21T00:54:58.761Z,17.23
2019-02-21T00:57:24.712Z,11.07
2019-02-21T00:59:50.984Z,16.13
2019-02-21T01:02:17.456Z,13.60
2019-02-21T01:04:43.425Z,13.77
2019-02-21T01:07:09.440Z,14.53
2019-02-21T01:09:35.407Z,11.10
2019-02-21T01:12:01.393Z,12.80
2019-02-21T01:14:28.088Z,11.80
2019-02-21T01:16:54.070Z,13.97
2019-02-21T01:19:20.018Z,11.57
2019-02-21T01:21:45.987Z,16.13
2019-02-21T01:24:12.659Z,17.03
2019-02-21T01:26:38.637Z,16.17
2019-02-21T01:29:04.728Z,14.37
2019-02-21T01:31:30.919Z,13.53
2019-02-21T01:33:56.867Z,13.00
2019-02-21T01:36:22.832Z,13.73
2019-02-21T01:38:48.776Z,13.30
2019-02-21T01:41:15.471Z,13.67
2019-02-21T01:43:41.437Z,13.67
2019-02-21T01:46:07.427Z,17.67
2019-02-21T01:48:33.391Z,13.40
2019-02-21T01:50:59.349Z,14.17
2019-02-21T01:53:25.340Z,14.93
2019-02-21T01:55:51.308Z,10.90
2019-02-21T01:58:17.302Z,15.40
2019-02-21T02:00:43.279Z,13.57
2019-02-21T02:03:10.019Z,16.70
2019-02-21T02:05:35.973Z,14.10
2019-02-21T02:08:01.958Z,12.83
2019-02-21T02:10:27.928Z,15.00
2019-02-21T02:12:53.904Z,12.83
2019-02-21T02:15:19.889Z,12.93
2019-02-21T02:17:45.877Z,10.30
2019-02-21T02:20:12.573Z,11.87
2019-02-21T02:22:38.554Z,15.53
2019-02-21T02:25:04.495Z,14.70
2019-02-21T02:27:30.470Z,15.33
2019-02-21T02:29:57.193Z,13.50
2019-02-21T02:32:23.149Z,14.40
2019-02-21T02:34:49.131Z,19.20
2019-02-21T02:37:15.094Z,13.73
2019-02-21T02:39:41.827Z,14.93
2019-02-21T02:42:07.786Z,14.13
2019-02-21T02:44:33.769Z,18.60
2019-02-21T02:47:00.463Z,16.83
2019-02-21T02:49:26.437Z,16.90
2019-02-21T02:51:52.427Z,14.17
2019-02-21T02:54:18.402Z,15.00
2019-02-21T02:56:44.360Z,17.33
2019-02-21T02:59:10.350Z,14.43
2019-02-21T03:01:36.354Z,17.10
2019-02-21T03:04:02.375Z,13.57
2019-02-21T03:06:28.373Z,16.97
2019-02-21T03:08:54.331Z,15.37
2019-02-21T03:11:20.308Z,14.90
2019-02-21T03:13:46.253Z,16.30
2019-02-21T03:16:12.981Z,16.30
2019-02-21T03:18:38.930Z,14.37
2019-02-21T03:21:05.642Z,16.57
2019-02-21T03:23:31.605Z,19.70
2019-02-21T03:25:57.589Z,16.00
2019-02-21T03:28:23.536Z,14.30
2019-02-21T03:30:50.253Z,21.10
2019-02-21T03:33:16.940Z,16.07
2019-02-21T03:35:42.917Z,14.93
2019-02-21T03:38:08.880Z,17.27
2019-02-21T03:40:34.893Z,16.27
2019-02-21T03:43:00.852Z,18.53
2019-02-21T03:45:26.830Z,19.33
2019-02-21T03:47:52.816Z,18.77
2019-02-21T03:50:18.774Z,17.60
2019-02-21T03:52:45.486Z,19.00
2019-02-21T03:55:12.217Z,20.80
2019-02-21T03:57:38.204Z,17.00
2019-02-21T04:00:04.204Z,19.10
2019-02-21T04:02:30.910Z,13.87
2019-02-21T04:04:56.928Z,16.30
2019-02-21T04:07:22.897Z,17.47
2019-02-21T04:09:48.862Z,18.10
2019-02-21T04:12:14.871Z,17.50
2019-02-21T04:14:40.867Z,19.83
2019-02-21T04:17:06.852Z,15.80
2019-02-21T04:19:33.567Z,19.73
2019-02-21T04:21:59.566Z,19.03
2019-02-21T04:24:25.630Z,18.23
2019-02-21T04:26:51.556Z,18.77
2019-02-21T04:29:17.515Z,18.17
2019-02-21T04:31:44.239Z,19.10
2019-02-21T04:34:10.948Z,19.47
2019-02-21T04:36:36.899Z,16.53
2019-02-21T04:39:03.627Z,17.67
2019-02-21T04:41:29.578Z,18.07
2019-02-21T04:43:56.294Z,19.53
2019-02-21T04:46:23.008Z,15.70
2019-02-21T04:48:48.990Z,21.63
2019-02-21T04:51:15.014Z,23.57
2019-02-21T04:53:41.006Z,17.40
2019-02-21T04:56:07.016Z,22.23
2019-02-21T04:58:33.004Z,19.57
2019-02-21T05:00:59.002Z,19.63
2019-02-21T05:03:25.679Z,19.70
2019-02-21T05:05:51.666Z,19.87
2019-02-21T05:08:17.630Z,18.37
2019-02-21T05:10:44.476Z,19.23
2019-02-21T05:13:10.424Z,23.87
2019-02-21T05:15:37.183Z,22.13
2019-02-21T05:18:03.880Z,21.30
2019-02-21T05:20:29.858Z,19.27
2019-02-21T05:22:55.799Z,18.20
2019-02-21T05:25:21.771Z,18.67
2019-02-21T05:27:47.755Z,17.40
2019-02-21T05:30:14.033Z,19.10
2019-02-21T05:32:41.254Z,22.50
2019-02-21T05:35:05.837Z,18.33
2019-02-21T05:37:31.813Z,18.10
2019-02-21T05:39:57.810Z,21.17
2019-02-21T05:42:24.542Z,20.10
2019-02-21T05:44:50.519Z,18.40
2019-02-21T05:47:16.505Z,19.50
2019-02-21T05:49:42.493Z,18.90
2019-02-21T05:52:08.491Z,18.80
2019-02-21T05:54:34.453Z,19.50
2019-02-21T05:57:00.430Z,22.10
2019-02-21T05:59:26.438Z,19.17
2019-02-21T06:01:52.561Z,15.93
2019-02-21T06:04:19.484Z,19.77
2019-02-21T06:06:44.582Z,18.53
2019-02-21T06:09:10.537Z,18.10
2019-02-21T06:11:36.544Z,17.33
2019-02-21T06:14:03.258Z,15.90
2019-02-21T06:16:32.568Z,21.73
2019-02-21T06:18:56.007Z,18.60
2019-02-21T06:21:21.972Z,17.37
2019-02-21T06:23:49.369Z,23.40
2019-02-21T06:26:14.720Z,21.20
2019-02-21T06:28:40.708Z,23.13
2019-02-21T06:31:06.666Z,18.67
2019-02-21T06:33:32.635Z,18.27
2019-02-21T06:35:58.608Z,18.57
2019-02-21T06:38:24.605Z,17.50
2019-02-21T06:40:50.596Z,21.20
2019-02-21T06:43:16.607Z,23.33
2019-02-21T06:45:43.311Z,18.87
2019-02-21T06:48:09.327Z,17.57
2019-02-21T06:50:35.299Z,21.27
2019-02-21T06:53:01.319Z,21.10
2019-02-21T06:55:27.321Z,20.03
2019-02-21T06:57:54.021Z,20.50
2019-02-21T07:00:20.038Z,27.33
2019-02-21T07:02:46.020Z,18.67
2019-02-21T07:05:13.328Z,21.40
2019-02-21T07:07:39.292Z,23.33
2019-02-21T07:10:06.019Z,20.37
2019-02-21T07:12:31.987Z,19.20
2019-02-21T07:14:57.986Z,22.50
2019-02-21T07:17:23.960Z,19.30
2019-02-21T07:19:49.958Z,24.70
2019-02-21T07:22:17.958Z,19.20
2019-02-21T07:24:41.985Z,21.57
2019-02-21T07:27:07.965Z,22.30
2019-02-21T07:29:33.960Z,20.77
2019-02-21T07:31:59.929Z,20.70
2019-02-21T07:34:25.907Z,21.33
2019-02-21T07:36:51.855Z,18.80
2019-02-21T07:39:20.700Z,23.03
2019-02-21T07:41:43.930Z,20.83
2019-02-21T07:44:12.303Z,17.30
2019-02-21T07:46:37.475Z,20.33
2019-02-21T07:49:03.460Z,24.53
2019-02-21T07:51:29.451Z,22.13
2019-02-21T07:53:56.147Z,19.57
2019-02-21T07:56:22.145Z,17.13
2019-02-21T07:58:48.123Z,17.67
2019-02-21T08:01:14.137Z,19.47
2019-02-21T08:03:44.221Z,16.67
2019-02-21T08:06:06.174Z,19.50
2019-02-21T08:08:32.572Z,16.13
2019-02-21T08:10:58.186Z,19.07
2019-02-21T08:13:24.159Z,19.53
2019-02-21T08:15:50.168Z,18.00
2019-02-21T08:18:16.132Z,19.70
2019-02-21T08:20:42.831Z,16.57
2019-02-21T08:23:10.956Z,18.63
2019-02-21T08:25:34.844Z,15.17
2019-02-21T08:28:00.852Z,16.70
2019-02-21T08:30:28.990Z,16.10
2019-02-21T08:32:52.889Z,16.40
2019-02-21T08:35:18.868Z,13.73
2019-02-21T08:37:44.863Z,15.23
2019-02-21T08:40:10.823Z,19.40
2019-02-21T08:42:36.824Z,17.43
2019-02-21T08:45:02.771Z,16.33
2019-02-21T08:47:28.782Z,15.63
2019-02-21T08:49:54.761Z,18.53
2019-02-21T08:52:21.500Z,14.07
2019-02-21T08:54:48.203Z,16.00
2019-02-21T08:57:14.185Z,16.97
2019-02-21T08:59:42.284Z,18.10
2019-02-21T09:02:06.207Z,16.50
2019-02-21T09:04:32.200Z,14.83
2019-02-21T09:06:58.177Z,14.97
2019-02-21T09:09:24.958Z,17.93
2019-02-21T09:11:50.905Z,14.93
2019-02-21T09:14:17.639Z,15.40
2019-02-21T09:16:43.607Z,19.27
2019-02-21T09:19:09.602Z,13.77
2019-02-21T09:21:35.574Z,18.47
2019-02-21T09:24:01.572Z,16.43
2019-02-21T09:26:27.534Z,17.87
2019-02-21T09:28:53.547Z,15.43
2019-02-21T09:31:19.513Z,17.97
2019-02-21T09:33:46.236Z,17.53
2019-02-21T09:36:12.207Z,14.83
2019-02-21T09:38:38.178Z,16.37
2019-02-21T09:41:04.183Z,16.07
2019-02-21T09:43:30.152Z,14.20
2019-02-21T09:45:56.873Z,14.57
2019-02-21T09:48:23.586Z,15.23
2019-02-21T09:50:49.601Z,15.43
2019-02-21T09:53:15.566Z,15.23
2019-02-21T09:55:41.612Z,17.57
2019-02-21T09:58:07.594Z,16.13
2019-02-21T10:00:35.880Z,17.33
2019-02-21T10:02:59.622Z,17.90
2019-02-21T10:05:25.623Z,16.87
2019-02-21T10:07:51.593Z,17.17
2019-02-21T10:10:17.588Z,18.37
2019-02-21T10:12:43.550Z,19.97
2019-02-21T10:15:10.304Z,16.13
2019-02-21T10:17:36.288Z,15.57
2019-02-21T10:20:04.107Z,15.57
2019-02-21T10:22:28.278Z,16.83
2019-02-21T10:24:56.856Z,18.40
2019-02-21T10:27:20.290Z,19.03
2019-02-21T10:29:46.268Z,18.23
2019-02-21T10:32:12.267Z,16.23
2019-02-21T10:34:43.046Z,18.87
2019-02-21T10:37:04.990Z,16.90
2019-02-21T10:39:30.931Z,16.40
2019-02-21T10:41:57.657Z,18.40
2019-02-21T10:44:24.408Z,15.73
2019-02-21T10:46:50.378Z,19.50
2019-02-21T10:49:16.354Z,20.53
2019-02-21T10:51:43.095Z,18.77
2019-02-21T10:54:09.818Z,18.47
2019-02-21T10:56:35.813Z,18.83
2019-02-21T10:59:01.921Z,21.60
2019-02-21T11:01:27.800Z,19.90
2019-02-21T11:03:54.544Z,18.90
2019-02-21T11:06:20.503Z,19.70
2019-02-21T11:08:46.493Z,20.57
2019-02-21T11:11:12.437Z,19.90
2019-02-21T11:13:38.425Z,17.50
2019-02-21T11:16:04.383Z,17.53
2019-02-21T11:18:30.375Z,18.87
2019-02-21T11:20:56.338Z,19.90
2019-02-21T11:23:22.355Z,24.17
2019-02-21T11:25:48.348Z,19.83
2019-02-21T11:28:14.363Z,17.50
2019-02-21T11:30:40.332Z,18.83
2019-02-21T11:33:06.332Z,18.77
2019-02-21T11:35:33.061Z,24.70
2019-02-21T11:37:59.091Z,17.73
2019-02-21T11:40:25.807Z,19.63
2019-02-21T11:42:51.765Z,20.70
2019-02-21T11:45:17.782Z,21.23
2019-02-21T11:47:44.506Z,18.60
2019-02-21T11:50:11.265Z,22.53
2019-02-21T11:52:37.984Z,16.53
2019-02-21T11:55:03.974Z,22.13
2019-02-21T11:57:29.962Z,20.43
2019-02-21T11:59:55.948Z,21.10
2019-02-21T12:02:21.931Z,18.10
2019-02-21T12:04:47.924Z,19.00
2019-02-21T12:07:14.630Z,17.43
2019-02-21T12:09:40.630Z,18.67
2019-02-21T12:12:06.611Z,19.40
2019-02-21T12:14:33.351Z,18.30
2019-02-21T12:17:00.057Z,17.50
2019-02-21T12:19:26.055Z,20.30
2019-02-21T12:21:59.066Z,18.27
2019-02-21T12:24:18.024Z,20.70
2019-02-21T12:26:44.013Z,19.23
2019-02-21T12:29:09.957Z,20.97
2019-02-21T12:31:35.934Z,17.07
2019-02-21T12:34:01.926Z,19.83
2019-02-21T12:36:27.913Z,19.50
2019-02-21T12:38:53.878Z,19.30
2019-02-21T12:41:19.863Z,17.70
2019-02-21T12:43:45.851Z,17.63
2019-02-21T12:46:11.833Z,27.93
2019-02-21T12:48:37.802Z,24.87
2019-02-21T12:51:03.812Z,18.77
2019-02-21T12:53:30.524Z,21.07
2019-02-21T12:55:56.525Z,19.63
2019-02-21T12:58:22.514Z,22.23
2019-02-21T13:00:48.516Z,20.40
2019-02-21T13:03:15.249Z,20.20
2019-02-21T13:05:44.460Z,21.07
2019-02-21T13:08:08.007Z,18.70
2019-02-21T13:10:35.073Z,25.90
2019-02-21T13:13:00.807Z,19.50
2019-02-21T13:15:26.773Z,24.13
2019-02-21T13:17:52.784Z,22.23
2019-02-21T13:20:18.773Z,23.13
2019-02-21T13:22:44.765Z,26.23
2019-02-21T13:25:11.491Z,23.50
2019-02-21T13:27:37.554Z,25.73
2019-02-21T13:30:04.235Z,22.90
2019-02-21T13:32:30.236Z,20.97
2019-02-21T13:34:56.253Z,20.37
2019-02-21T13:37:28.918Z,20.87
2019-02-21T13:39:48.269Z,21.17
2019-02-21T13:42:14.996Z,19.97
2019-02-21T13:44:41.727Z,17.30
2019-02-21T13:47:07.696Z,17.53
2019-02-21T13:49:33.700Z,20.90
2019-02-21T13:52:00.402Z,15.70
2019-02-21T13:54:26.392Z,16.77
2019-02-21T13:56:52.345Z,19.43
2019-02-21T13:59:18.332Z,18.07
2019-02-21T14:01:44.334Z,20.67
2019-02-21T14:04:11.062Z,14.97
2019-02-21T14:06:37.031Z,18.17
2019-02-21T14:09:03.019Z,14.60
2019-02-21T14:11:30.808Z,13.40
2019-02-21T14:13:55.010Z,17.53
2019-02-21T14:16:21.768Z,15.57
2019-02-21T14:18:47.738Z,14.57
2019-02-21T14:21:13.783Z,12.83
2019-02-21T14:23:39.769Z,12.77
2019-02-21T14:26:06.504Z,15.20
2019-02-21T14:28:32.518Z,14.20
2019-02-21T14:30:58.511Z,13.40
2019-02-21T14:33:24.466Z,10.53
2019-02-21T14:35:50.460Z,15.77
2019-02-21T14:38:26.995Z,13.63
2019-02-21T14:40:42.480Z,17.03
2019-02-21T14:43:08.433Z,13.43
2019-02-21T14:45:34.448Z,12.33
2019-02-21T14:48:00.461Z,15.57
2019-02-21T14:50:26.463Z,12.33
2019-02-21T14:52:52.454Z,14.13
2019-02-21T14:55:19.235Z,12.80
2019-02-21T14:57:45.242Z,15.10
2019-02-21T15:00:11.987Z,13.10
2019-02-21T15:02:37.946Z,12.87
2019-02-21T15:05:03.945Z,14.40
2019-02-21T15:07:29.946Z,16.10
2019-02-21T15:09:56.654Z,13.70
2019-02-21T15:12:22.651Z,14.43
2019-02-21T15:14:48.651Z,14.67
2019-02-21T15:17:14.623Z,12.07
2019-02-21T15:19:40.603Z,12.80
2019-02-21T15:22:06.576Z,14.57
2019-02-21T15:24:32.525Z,12.93
2019-02-21T15:27:08.077Z,15.83
2019-02-21T15:29:32.174Z,14.27
2019-02-21T15:31:58.181Z,13.90
2019-02-21T15:34:24.158Z,11.83
2019-02-21T15:36:50.154Z,14.37
2019-02-21T15:39:16.156Z,13.80
2019-02-21T15:41:42.148Z,14.00
2019-02-21T15:44:08.850Z,15.20
2019-02-21T15:46:34.859Z,13.77
2019-02-21T15:49:00.812Z,14.87
2019-02-21T15:51:26.833Z,14.10
2019-02-21T15:53:52.813Z,12.07
2019-02-21T15:56:18.763Z,16.13
2019-02-21T15:58:44.737Z,13.27
2019-02-21T16:01:14.017Z,14.03
2019-02-21T16:03:37.514Z,11.07
2019-02-21T16:06:04.199Z,15.03
2019-02-21T16:08:30.179Z,12.37
2019-02-21T16:10:56.140Z,12.47
2019-02-21T16:13:22.739Z,12.93
2019-02-21T16:15:48.192Z,14.27
2019-02-21T16:18:14.207Z,13.27
2019-02-21T16:20:40.195Z,12.13
2019-02-21T16:23:06.231Z,14.83
2019-02-21T16:25:32.199Z,11.87
2019-02-21T16:27:58.219Z,11.50
2019-02-21T16:30:24.201Z,13.70
2019-02-21T16:32:50.180Z,14.43
2019-02-21T16:35:17.057Z,13.73
2019-02-21T16:37:42.922Z,12.90
2019-02-21T16:40:08.910Z,16.30
2019-02-21T16:42:34.874Z,14.83
2019-02-21T16:45:00.901Z,15.30
2019-02-21T16:47:26.851Z,13.83
2019-02-21T16:49:52.852Z,18.17
2019-02-21T16:52:18.803Z,13.63
2019-02-21T16:54:45.546Z,12.37
2019-02-21T16:57:12.255Z,14.53
2019-02-21T16:59:38.221Z,12.97
2019-02-21T17:02:04.182Z,14.20
2019-02-21T17:04:30.189Z,14.30
2019-02-21T17:06:56.139Z,13.70
2019-02-21T17:09:22.095Z,14.47
2019-02-21T17:11:48.823Z,15.57
2019-02-21T17:14:14.778Z,13.03
2019-02-21T17:16:40.766Z,14.73
2019-02-21T17:19:06.720Z,15.43
2019-02-21T17:21:32.704Z,13.53
2019-02-21T17:23:58.651Z,15.93
2019-02-21T17:26:24.633Z,16.67
2019-02-21T17:28:50.580Z,14.77
2019-02-21T17:31:17.316Z,12.50
2019-02-21T17:33:44.031Z,14.30
2019-02-21T17:36:10.018Z,13.53
2019-02-21T17:38:35.994Z,14.73
2019-02-21T17:41:02.754Z,15.73
2019-02-21T17:43:29.465Z,14.00
2019-02-21T17:45:55.445Z,13.30
2019-02-21T17:48:21.406Z,18.57
2019-02-21T17:50:47.391Z,15.30
2019-02-21T17:53:13.354Z,19.30
2019-02-21T17:55:39.353Z,16.57
2019-02-21T17:58:05.329Z,16.30
2019-02-21T18:00:32.040Z,14.90
2019-02-21T18:02:58.019Z,16.83
2019-02-21T18:05:23.977Z,16.13
2019-02-21T18:07:49.960Z,17.17
2019-02-21T18:10:15.923Z,16.33
2019-02-21T18:12:41.916Z,15.60
2019-02-21T18:15:07.863Z,17.17
2019-02-21T18:17:33.868Z,18.13
2019-02-21T18:19:59.879Z,16.50
2019-02-21T18:22:26.722Z,15.60
2019-02-21T18:24:52.751Z,17.80
2019-02-21T18:27:18.759Z,17.17
2019-02-21T18:29:44.742Z,17.83
2019-02-21T18:32:10.747Z,17.93
2019-02-21T18:34:36.797Z,17.23
2019-02-21T18:37:02.856Z,14.60
2019-02-21T18:39:28.874Z,17.90
2019-02-21T18:41:54.873Z,17.20
2019-02-21T18:44:21.626Z,16.83
2019-02-21T18:46:47.655Z,22.07
2019-02-21T18:49:13.623Z,16.43
2019-02-21T18:51:39.610Z,16.63
2019-02-21T18:54:05.586Z,17.53
2019-02-21T18:56:31.562Z,15.37
2019-02-21T18:58:57.524Z,19.87
2019-02-21T19:01:23.567Z,15.70
2019-02-21T19:03:49.772Z,20.30
2019-02-21T19:06:16.641Z,16.83
2019-02-21T19:08:42.586Z,18.07
2019-02-21T19:11:09.310Z,19.30
2019-02-21T19:13:36.040Z,19.87
2019-02-21T19:16:02.021Z,20.80
2019-02-21T19:18:28.017Z,18.97
2019-02-21T19:20:54.027Z,19.40
2019-02-21T19:23:20.759Z,19.13
2019-02-21T19:25:47.510Z,16.53
2019-02-21T19:28:14.249Z,19.43
2019-02-21T19:30:40.982Z,18.63
2019-02-21T19:33:07.743Z,20.03
2019-02-21T19:35:33.717Z,19.50
2019-02-21T19:38:09.944Z,19.90
2019-02-21T19:40:26.896Z,21.27
2019-02-21T19:42:52.878Z,21.00
2019-02-21T19:45:18.892Z,18.83
2019-02-21T19:47:44.915Z,18.17
2019-02-21T19:50:10.887Z,22.77
2019-02-21T19:52:36.845Z,18.20
2019-02-21T19:55:03.581Z,21.03
2019-02-21T19:57:30.371Z,22.77
2019-02-21T19:59:56.393Z,17.53
2019-02-21T20:02:22.358Z,20.47
2019-02-21T20:04:48.392Z,19.17
2019-02-21T20:07:15.108Z,22.23
2019-02-21T20:09:41.103Z,20.43
2019-02-21T20:12:07.124Z,22.97
2019-02-21T20:14:33.163Z,22.77
2019-02-21T20:16:59.149Z,18.00
2019-02-21T20:19:25.179Z,20.37
2019-02-21T20:21:51.209Z,19.47
2019-02-21T20:24:17.230Z,16.53
2019-02-21T20:26:43.200Z,19.67
2019-02-21T20:29:09.200Z,20.40
2019-02-21T20:31:35.192Z,19.07
2019-02-21T20:34:01.180Z,20.63
2019-02-21T20:36:27.217Z,22.33
2019-02-21T20:38:53.959Z,24.07
2019-02-21T20:41:20.689Z,23.20
2019-02-21T20:43:47.404Z,20.60
2019-02-21T20:46:13.388Z,20.97
2019-02-21T20:48:39.336Z,20.47
2019-02-21T20:51:05.356Z,23.07
2019-02-21T20:53:31.330Z,19.33
2019-02-21T20:55:58.057Z,22.07
2019-02-21T20:58:24.014Z,21.73
2019-02-21T21:00:50.002Z,20.60
2019-02-21T21:03:16.746Z,19.30
2019-02-21T21:05:42.728Z,20.50
2019-02-21T21:08:08.700Z,22.83
2019-02-21T21:10:35.436Z,19.50
2019-02-21T21:13:01.402Z,21.33
2019-02-21T21:15:27.398Z,19.20
2019-02-21T21:17:53.359Z,21.63
2019-02-21T21:20:19.442Z,20.90
2019-02-21T21:22:46.164Z,20.90
2019-02-21T21:25:12.882Z,22.40
2019-02-21T21:27:38.877Z,15.97
2019-02-21T21:30:04.818Z,21.63
2019-02-21T21:32:30.799Z,22.67
2019-02-21T21:34:56.757Z,19.20
2019-02-21T21:37:22.792Z,18.33
2019-02-21T21:39:48.802Z,19.83
2019-02-21T21:42:14.809Z,21.30
2019-02-21T21:44:41.586Z,23.33
2019-02-21T21:47:07.789Z,20.53
2019-02-21T21:49:34.065Z,22.37
2019-02-21T21:52:00.041Z,19.30
2019-02-21T21:54:25.981Z,20.47
2019-02-21T21:56:51.966Z,19.83
2019-02-21T21:59:17.947Z,22.53
2019-02-21T22:01:44.485Z,25.50
2019-02-21T22:04:10.476Z,19.27
2019-02-21T22:06:36.474Z,22.20
2019-02-21T22:09:04.987Z,21.07
2019-02-21T22:11:28.502Z,20.27
2019-02-21T22:13:55.198Z,18.83
2019-02-21T22:16:21.160Z,21.60
2019-02-21T22:18:47.150Z,19.27
2019-02-21T22:21:13.113Z,20.17
2019-02-21T22:23:39.114Z,19.07
2019-02-21T22:26:05.321Z,21.30
2019-02-21T22:28:31.466Z,19.40
2019-02-21T22:30:58.151Z,20.93
2019-02-21T22:33:23.480Z,20.53
2019-02-21T22:35:49.451Z,20.23
2019-02-21T22:38:16.164Z,20.23
2019-02-21T22:40:42.128Z,19.43
2019-02-21T22:43:08.120Z,18.37
2019-02-21T22:45:34.078Z,20.70
2019-02-21T22:48:00.039Z,20.67
2019-02-21T22:50:26.914Z,23.23
2019-02-21T22:52:52.043Z,21.07
2019-02-21T22:55:18.051Z,21.00
2019-02-21T22:57:44.754Z,20.40
2019-02-21T23:00:10.745Z,19.47
2019-02-21T23:02:36.692Z,23.67
2019-02-21T23:05:02.668Z,25.00
2019-02-21T23:07:28.640Z,22.53
2019-02-21T23:09:54.621Z,24.27
2019-02-21T23:12:20.600Z,24.90
2019-02-21T23:14:46.561Z,25.63
2019-02-21T23:17:12.528Z,23.97
2019-02-21T23:19:38.509Z,21.17
2019-02-21T23:22:04.473Z,25.27
2019-02-21T23:24:30.447Z,21.93
2019-02-21T23:26:57.149Z,24.63
2019-02-21T23:29:23.122Z,26.30
2019-02-21T23:31:49.104Z,27.57
2019-02-21T23:34:15.059Z,27.30
2019-02-21T23:36:41.063Z,27.57
2019-02-21T23:39:07.790Z,30.23
2019-02-21T23:41:33.773Z,29.63
2019-02-21T23:43:59.773Z,32.73
2019-02-21T23:46:25.780Z,27.30
2019-02-21T23:48:52.500Z,28.27
2019-02-21T23:51:18.485Z,28.70
2019-02-21T23:53:44.429Z,29.30
2019-02-21T23:56:10.424Z,27.37
2019-02-21T23:58:36.370Z,29.17
